createdAt,value
2023-02-23T02:05:46.169Z,11.58
2023-02-23T07:21:15.100Z,10.99
2023-02-23T07:26:22.624Z,10.96
2023-02-23T07:31:31.885Z,10.98
2023-02-23T07:36:42.043Z,11.03
2023-02-23T07:41:49.557Z,11.05
2023-02-23T07:46:57.707Z,11.10
2023-02-23T07:52:08.824Z,11.15
2023-02-23T07:57:16.353Z,11.16
2023-02-23T08:02:23.879Z,11.21
2023-02-23T08:07:35.052Z,11.26
2023-02-23T08:12:42.690Z,11.27
2023-02-23T08:17:50.287Z,11.33
2023-02-23T08:23:01.023Z,11.40
2023-02-23T08:28:08.839Z,11.44
2023-02-23T08:33:16.492Z,11.49
2023-02-23T08:38:26.682Z,11.59
2023-02-23T08:43:35.017Z,11.66
2023-02-23T08:48:42.757Z,11.73
2023-02-23T08:53:52.908Z,11.83
2023-02-23T08:59:00.404Z,11.91
2023-02-23T09:04:08.692Z,11.99
2023-02-23T09:09:19.153Z,12.11
2023-02-23T09:14:26.745Z,12.19
2023-02-23T09:19:34.292Z,12.30
2023-02-23T09:24:44.375Z,12.41
2023-02-23T09:29:51.875Z,12.48
2023-02-23T09:34:59.418Z,12.59
2023-02-23T09:40:12.136Z,12.72
2023-02-23T09:45:31.436Z,12.83
2023-02-23T09:50:41.822Z,12.93
2023-02-23T09:55:55.279Z,13.09
2023-02-23T10:01:19.338Z,13.27
2023-02-23T10:06:27.341Z,13.35
2023-02-23T10:11:46.834Z,13.50
2023-02-23T10:17:08.713Z,13.62
2023-02-23T10:22:18.489Z,13.66
2023-02-23T10:27:35.126Z,13.71
2023-02-23T10:32:44.555Z,13.75
2023-02-23T10:37:54.517Z,13.84
2023-02-23T10:43:05.493Z,13.93
2023-02-23T10:48:21.328Z,14.05
2023-02-23T10:53:32.875Z,14.08
2023-02-23T10:58:48.674Z,14.19
2023-02-23T11:04:05.689Z,14.23
2023-02-23T11:09:41.240Z,14.33
2023-02-23T11:14:58.115Z,14.38
2023-02-23T11:20:09.063Z,14.40
2023-02-23T11:25:20.592Z,14.44
2023-02-23T11:30:42.982Z,14.47
2023-02-23T11:35:50.558Z,14.44
2023-02-23T11:41:03.067Z,14.48
2023-02-23T11:46:13.350Z,14.52
2023-02-23T11:51:29.429Z,14.60
2023-02-23T11:56:38.604Z,14.65
2023-02-23T12:01:53.151Z,14.73
2023-02-23T12:07:29.692Z,14.80
2023-02-23T12:12:47.484Z,14.76
2023-02-23T12:18:02.228Z,14.73
2023-02-23T12:23:13.015Z,14.71
2023-02-23T12:28:29.558Z,14.73
2023-02-23T12:33:43.143Z,14.74
2023-02-23T12:38:57.708Z,14.73
2023-02-23T12:44:17.488Z,14.73
2023-02-23T12:49:34.840Z,14.73
2023-02-23T12:54:42.414Z,14.71
2023-02-23T13:00:30.875Z,14.78
2023-02-23T13:05:44.061Z,14.71
2023-02-23T13:10:59.127Z,14.74
2023-02-23T13:16:19.301Z,14.76
2023-02-23T13:21:36.086Z,14.75
2023-02-23T13:26:52.096Z,14.75
2023-02-23T13:32:00.656Z,14.72
2023-02-23T13:37:12.424Z,14.74
2023-02-23T13:42:29.163Z,14.73
2023-02-23T13:47:49.145Z,14.75
2023-02-23T13:53:05.414Z,14.75
2023-02-23T13:58:18.494Z,14.74
2023-02-23T14:03:30.009Z,14.67
2023-02-23T14:08:42.117Z,14.59
2023-02-23T14:14:02.252Z,14.55
2023-02-23T14:19:15.675Z,14.46
2023-02-23T14:24:27.760Z,14.40
2023-02-23T14:29:44.678Z,14.35
2023-02-23T14:34:57.353Z,14.26
2023-02-23T14:40:15.880Z,14.28
2023-02-23T14:45:31.131Z,14.24
2023-02-23T14:50:41.358Z,14.20
2023-02-23T14:55:51.564Z,14.22
2023-02-23T15:00:59.424Z,14.19
2023-02-23T15:06:08.603Z,14.16
2023-02-23T15:11:19.952Z,14.16
2023-02-23T15:16:32.017Z,14.14
2023-02-23T15:21:40.543Z,14.09
2023-02-23T15:26:50.677Z,14.09
2023-02-23T15:31:58.932Z,14.06
2023-02-23T15:37:10.091Z,14.00
2023-02-23T15:42:21.605Z,14.10
2023-02-23T15:47:35.226Z,13.96
2023-02-23T15:52:50.314Z,13.89
2023-02-23T15:58:02.956Z,13.84
2023-02-23T16:03:24.182Z,13.78
2023-02-23T16:08:32.770Z,13.74
2023-02-23T16:13:46.442Z,13.72
2023-02-23T16:19:01.405Z,13.66
2023-02-23T16:24:12.724Z,13.61
2023-02-23T16:29:29.651Z,13.57
2023-02-23T16:34:39.053Z,13.48
2023-02-23T16:39:48.144Z,13.43
2023-02-23T16:44:59.220Z,13.39
2023-02-23T16:50:20.224Z,13.49
2023-02-23T16:55:31.017Z,13.28
2023-02-23T17:00:41.723Z,13.23
2023-02-23T17:05:49.695Z,13.13
2023-02-23T17:10:57.439Z,13.06
2023-02-23T17:16:10.115Z,13.01
2023-02-23T17:21:23.025Z,12.94
2023-02-23T17:26:30.883Z,12.87
2023-02-23T17:31:41.344Z,12.85
2023-02-23T17:36:48.995Z,12.79
2023-02-23T17:41:57.960Z,12.76
2023-02-23T17:47:08.233Z,12.73
2023-02-23T17:52:15.786Z,12.68
2023-02-23T17:57:23.544Z,12.61
2023-02-23T18:02:34.123Z,12.61
2023-02-23T18:07:42.032Z,12.57
2023-02-23T18:12:49.600Z,12.56
2023-02-23T18:18:01.334Z,12.57
2023-02-23T18:23:08.871Z,12.52
2023-02-23T18:28:16.598Z,12.48
2023-02-23T18:33:26.809Z,12.46
2023-02-23T18:38:34.390Z,12.41
2023-02-23T18:43:42.041Z,12.36
2023-02-23T18:48:54.694Z,12.33
2023-02-23T18:54:05.105Z,12.29
2023-02-23T18:59:12.880Z,12.27
2023-02-23T19:04:23.024Z,12.23
2023-02-23T19:09:30.560Z,12.20
2023-02-23T19:14:49.222Z,12.20
2023-02-23T19:20:00.703Z,12.22
2023-02-23T19:25:12.077Z,12.20
2023-02-23T19:30:20.023Z,12.19
2023-02-23T19:35:30.141Z,12.21
2023-02-23T19:40:42.790Z,12.18
2023-02-23T19:45:50.341Z,12.12
2023-02-23T19:51:00.502Z,12.11
2023-02-23T19:56:11.658Z,12.10
2023-02-23T20:01:21.718Z,12.07
2023-02-23T20:06:34.812Z,12.09
2023-02-23T20:11:42.859Z,12.08
2023-02-23T20:16:52.387Z,12.11
2023-02-23T20:22:02.856Z,12.11
2023-02-23T20:27:11.016Z,12.13
2023-02-23T20:32:18.711Z,12.15
2023-02-23T20:37:29.130Z,12.17
2023-02-23T20:42:36.630Z,12.16
2023-02-23T20:47:45.839Z,12.12
2023-02-23T20:52:56.101Z,12.05
2023-02-23T20:58:04.579Z,11.98
2023-02-23T21:03:12.273Z,11.90
2023-02-23T21:08:22.935Z,11.86
2023-02-23T21:13:30.483Z,11.80
2023-02-23T21:18:38.035Z,11.78
2023-02-23T21:23:49.343Z,11.75
2023-02-23T21:28:56.912Z,11.68
2023-02-23T21:34:05.507Z,11.67
2023-02-23T21:39:15.772Z,11.67
2023-02-23T21:44:23.499Z,11.63
2023-02-23T21:49:31.049Z,11.55
2023-02-23T21:54:41.591Z,11.40
2023-02-23T21:59:49.089Z,11.28
2023-02-23T22:04:56.644Z,11.16
2023-02-23T22:10:07.976Z,11.13
2023-02-23T22:15:18.313Z,11.05
2023-02-23T22:20:26.304Z,11.03
2023-02-23T22:25:36.552Z,10.92
2023-02-23T22:30:44.866Z,10.77
2023-02-23T22:35:53.205Z,10.65
2023-02-23T22:41:04.994Z,10.61
2023-02-23T22:46:12.659Z,10.59
2023-02-23T22:51:22.155Z,10.60
2023-02-23T22:56:33.324Z,10.65
2023-02-23T23:01:42.126Z,10.67
2023-02-23T23:06:49.644Z,10.70
2023-02-23T23:11:59.744Z,10.76
2023-02-23T23:17:07.359Z,10.75
2023-02-23T23:22:17.485Z,10.74
2023-02-23T23:27:27.638Z,10.77
2023-02-23T23:32:35.331Z,10.74
2023-02-23T23:37:43.085Z,10.74
2023-02-23T23:42:55.442Z,10.77
2023-02-23T23:48:09.462Z,10.75
2023-02-23T23:53:17.103Z,10.75
2023-02-23T23:58:27.280Z,10.75
